createdAt,value
2019-04-10T00:01:08.891Z,8.78
2019-04-10T00:03:40.392Z,8.84
2019-04-10T00:06:09.737Z,8.77
2019-04-10T00:08:40.029Z,8.75
2019-04-10T00:11:10.314Z,8.81
2019-04-10T00:13:40.708Z,8.80
2019-04-10T00:16:11.850Z,8.75
2019-04-10T00:18:44.238Z,8.82
2019-04-10T00:21:15.515Z,8.82
2019-04-10T00:23:47.099Z,8.81
2019-04-10T00:26:18.464Z,8.81
2019-04-10T00:28:49.744Z,8.76
2019-04-10T00:31:20.101Z,8.76
2019-04-10T00:33:51.385Z,8.78
2019-04-10T00:36:22.180Z,8.74
2019-04-10T00:38:53.887Z,8.68
2019-04-10T00:41:24.333Z,8.71
2019-04-10T00:43:55.251Z,8.67
2019-04-10T00:46:26.306Z,8.72
2019-04-10T00:48:56.727Z,8.73
2019-04-10T00:51:27.589Z,8.72
2019-04-10T00:53:58.055Z,8.70
2019-04-10T00:56:28.452Z,8.72
2019-04-10T00:59:01.500Z,8.68
2019-04-10T01:01:31.942Z,8.65
2019-04-10T01:04:02.764Z,8.67
2019-04-10T01:06:33.271Z,8.68
2019-04-10T01:09:04.714Z,8.62
2019-04-10T01:11:35.249Z,8.68
2019-04-10T01:14:06.018Z,8.60
2019-04-10T01:16:36.371Z,8.60
2019-04-10T01:19:07.837Z,8.60
2019-04-10T01:21:38.769Z,8.60
2019-04-10T01:24:09.163Z,8.56
2019-04-10T01:26:39.568Z,8.59
2019-04-10T01:29:10.021Z,8.52
2019-04-10T01:31:41.375Z,8.54
2019-04-10T01:34:11.706Z,8.47
2019-04-10T01:36:41.992Z,8.45
2019-04-10T01:39:19.329Z,8.43
2019-04-10T01:41:50.146Z,8.38
2019-04-10T01:44:20.677Z,8.37
2019-04-10T01:46:51.061Z,8.32
2019-04-10T01:49:21.788Z,8.39
2019-04-10T01:51:52.215Z,8.34
2019-04-10T01:54:22.787Z,8.31
2019-04-10T01:56:53.101Z,8.34
2019-04-10T01:59:25.623Z,8.25
2019-04-10T02:02:02.986Z,8.24
2019-04-10T02:04:33.583Z,8.21
2019-04-10T02:07:03.912Z,8.21
2019-04-10T02:09:35.090Z,8.19
2019-04-10T02:12:06.200Z,8.18
2019-04-10T02:14:36.686Z,8.17
2019-04-10T02:17:07.084Z,8.15
2019-04-10T02:19:38.465Z,8.14
2019-04-10T02:22:09.230Z,8.12
2019-04-10T02:24:39.557Z,8.14
2019-04-10T02:27:09.939Z,8.14
2019-04-10T02:29:40.281Z,8.08
2019-04-10T02:32:12.038Z,8.01
2019-04-10T02:34:43.786Z,8.02
2019-04-10T02:37:15.252Z,8.04
2019-04-10T02:39:48.439Z,7.96
2019-04-10T02:42:18.691Z,7.93
2019-04-10T02:44:50.350Z,7.95
2019-04-10T02:47:22.906Z,7.93
2019-04-10T02:49:54.512Z,7.85
2019-04-10T02:52:25.123Z,7.85
2019-04-10T02:54:55.450Z,7.82
2019-04-10T02:57:27.525Z,7.80
2019-04-10T03:00:00.893Z,7.76
2019-04-10T03:02:31.153Z,7.75
2019-04-10T03:05:02.613Z,7.75
2019-04-10T03:07:33.801Z,7.74
2019-04-10T03:10:15.259Z,7.71
2019-04-10T03:12:36.542Z,7.69
2019-04-10T03:15:09.640Z,7.70
2019-04-10T03:17:40.085Z,7.72
2019-04-10T03:20:10.689Z,7.66
2019-04-10T03:22:41.078Z,7.63
2019-04-10T03:25:11.540Z,7.61
2019-04-10T03:27:42.733Z,7.61
2019-04-10T03:30:15.282Z,7.60
2019-04-10T03:33:19.100Z,7.57
2019-04-10T03:35:48.088Z,7.55
2019-04-10T03:38:18.284Z,7.52
2019-04-10T03:40:48.727Z,7.53
2019-04-10T03:43:19.515Z,7.50
2019-04-10T03:45:49.865Z,7.43
2019-04-10T03:48:20.219Z,7.48
2019-04-10T03:50:50.655Z,7.46
2019-04-10T03:53:22.104Z,7.47
2019-04-10T03:55:53.646Z,7.40
2019-04-10T03:58:25.150Z,7.37
2019-04-10T04:00:55.743Z,7.35
2019-04-10T04:03:26.797Z,7.33
2019-04-10T04:05:57.509Z,7.30
2019-04-10T04:08:27.828Z,7.29
2019-04-10T04:10:59.118Z,7.28
2019-04-10T04:13:29.754Z,7.34
2019-04-10T04:16:00.299Z,7.28
2019-04-10T04:18:30.857Z,7.34
2019-04-10T04:21:01.516Z,7.26
2019-04-10T04:23:32.020Z,7.26
2019-04-10T04:26:03.065Z,7.26
2019-04-10T04:28:34.260Z,7.23
2019-04-10T04:31:05.304Z,7.25
2019-04-10T04:33:36.132Z,7.21
2019-04-10T04:36:06.439Z,7.20
2019-04-10T04:38:36.807Z,7.18
2019-04-10T04:41:07.206Z,7.18
2019-04-10T04:43:37.575Z,7.20
2019-04-10T04:46:08.036Z,7.13
2019-04-10T04:48:38.401Z,7.14
2019-04-10T04:51:09.009Z,7.09
2019-04-10T04:53:39.909Z,7.08
2019-04-10T04:56:11.422Z,7.05
2019-04-10T04:58:42.247Z,7.05
2019-04-10T05:01:12.865Z,7.01
2019-04-10T05:03:44.283Z,7.00
2019-04-10T05:06:14.797Z,6.97
2019-04-10T05:08:46.324Z,6.99
2019-04-10T05:11:16.769Z,6.99
2019-04-10T05:13:47.023Z,6.97
2019-04-10T05:16:18.548Z,6.96
2019-04-10T05:18:50.119Z,6.96
2019-04-10T05:21:21.325Z,6.98
2019-04-10T05:23:51.744Z,6.93
2019-04-10T05:26:27.821Z,6.94
2019-04-10T05:28:59.059Z,6.89
2019-04-10T05:31:29.876Z,6.91
2019-04-10T05:34:05.820Z,6.87
2019-04-10T05:37:07.533Z,6.84
2019-04-10T05:39:43.114Z,6.81
2019-04-10T05:42:10.628Z,6.82
2019-04-10T05:44:40.999Z,6.87
2019-04-10T05:47:11.837Z,6.86
2019-04-10T05:49:42.109Z,6.83
2019-04-10T05:52:12.688Z,6.81
2019-04-10T05:54:43.828Z,6.83
2019-04-10T05:57:14.450Z,6.79
2019-04-10T05:59:45.922Z,6.82
2019-04-10T06:02:16.297Z,6.81
2019-04-10T06:04:46.849Z,6.80
2019-04-10T06:07:17.133Z,6.80
2019-04-10T06:09:55.874Z,6.61
2019-04-10T06:12:20.319Z,6.81
2019-04-10T06:14:50.629Z,6.79
2019-04-10T06:17:20.936Z,6.79
2019-04-10T06:19:51.256Z,6.77
2019-04-10T06:22:22.565Z,6.76
2019-04-10T06:24:54.349Z,6.72
2019-04-10T06:27:24.956Z,6.69
2019-04-10T06:29:55.527Z,6.67
2019-04-10T06:32:25.942Z,6.70
2019-04-10T06:34:57.416Z,6.70
2019-04-10T06:37:28.333Z,6.64
2019-04-10T06:40:07.690Z,6.68
2019-04-10T06:42:35.101Z,6.70
2019-04-10T06:45:05.614Z,6.72
2019-04-10T06:47:36.175Z,6.80
2019-04-10T06:50:10.639Z,6.79
2019-04-10T06:52:41.034Z,6.82
2019-04-10T06:55:12.001Z,6.91
2019-04-10T06:57:49.180Z,6.92
2019-04-10T07:00:16.997Z,6.93
2019-04-10T07:02:47.358Z,6.90
2019-04-10T07:05:17.660Z,6.92
2019-04-10T07:07:53.609Z,6.94
2019-04-10T07:10:27.282Z,6.93
2019-04-10T07:12:53.275Z,6.90
2019-04-10T07:15:24.163Z,6.92
2019-04-10T07:17:55.614Z,6.86
2019-04-10T07:20:26.201Z,6.94
2019-04-10T07:22:56.994Z,6.92
2019-04-10T07:25:28.314Z,6.91
2019-04-10T07:27:58.565Z,6.92
2019-04-10T07:30:29.864Z,7.08
2019-04-10T07:33:01.334Z,7.07
2019-04-10T07:35:33.893Z,7.14
2019-04-10T07:38:03.847Z,7.11
2019-04-10T07:40:36.539Z,7.23
2019-04-10T07:43:06.557Z,7.35
2019-04-10T07:45:37.071Z,7.42
2019-04-10T07:48:08.722Z,7.45
2019-04-10T07:50:39.503Z,7.48
2019-04-10T07:53:10.525Z,7.64
2019-04-10T07:55:40.793Z,7.54
2019-04-10T07:58:11.237Z,7.68
2019-04-10T08:00:42.850Z,7.69
2019-04-10T08:03:13.257Z,7.86
2019-04-10T08:05:44.031Z,8.00
2019-04-10T08:08:14.394Z,8.21
2019-04-10T08:10:45.104Z,8.43
2019-04-10T08:13:16.142Z,8.61
2019-04-10T08:15:47.190Z,8.44
2019-04-10T08:18:19.287Z,8.42
2019-04-10T08:20:50.882Z,8.47
2019-04-10T08:23:21.808Z,8.68
2019-04-10T08:25:53.654Z,8.81
2019-04-10T08:28:24.203Z,9.02
2019-04-10T08:30:54.732Z,9.09
2019-04-10T08:33:25.994Z,9.32
2019-04-10T08:35:56.872Z,9.41
2019-04-10T08:38:28.061Z,9.43
2019-04-10T08:40:58.679Z,9.41
2019-04-10T08:43:29.595Z,9.70
2019-04-10T08:46:01.970Z,9.76
2019-04-10T08:48:33.225Z,10.38
2019-04-10T08:51:03.495Z,10.06
2019-04-10T08:53:34.139Z,10.29
2019-04-10T08:56:04.845Z,10.08
2019-04-10T08:58:35.137Z,10.01
2019-04-10T09:01:05.641Z,9.91
2019-04-10T09:03:37.164Z,9.97
2019-04-10T09:06:07.634Z,10.07
2019-04-10T09:08:39.103Z,9.89
2019-04-10T09:11:09.542Z,10.02
2019-04-10T09:13:40.958Z,10.22
2019-04-10T09:16:12.164Z,10.28
2019-04-10T09:18:42.673Z,10.70
2019-04-10T09:21:13.349Z,11.07
2019-04-10T09:23:50.245Z,11.45
2019-04-10T09:26:16.337Z,11.50
2019-04-10T09:28:46.800Z,11.37
2019-04-10T09:31:17.729Z,11.49
2019-04-10T09:33:48.192Z,11.36
2019-04-10T09:36:19.729Z,11.54
2019-04-10T09:38:50.783Z,11.86
2019-04-10T09:41:21.630Z,12.07
2019-04-10T09:43:51.990Z,11.96
2019-04-10T09:46:22.563Z,11.74
2019-04-10T09:48:53.293Z,11.65
2019-04-10T09:51:23.699Z,11.11
2019-04-10T09:53:54.167Z,10.89
2019-04-10T09:56:25.504Z,10.94
2019-04-10T09:58:56.734Z,10.82
2019-04-10T10:01:27.554Z,11.18
2019-04-10T10:03:59.194Z,12.39
2019-04-10T10:06:33.419Z,12.73
2019-04-10T10:09:01.761Z,13.20
2019-04-10T10:11:32.443Z,12.68
2019-04-10T10:14:04.052Z,12.82
2019-04-10T10:16:35.779Z,12.70
2019-04-10T10:19:06.366Z,12.71
2019-04-10T10:21:36.684Z,12.59
2019-04-10T10:24:07.122Z,12.64
2019-04-10T10:26:37.489Z,13.42
2019-04-10T10:29:09.038Z,12.60
2019-04-10T10:31:40.232Z,12.87
2019-04-10T10:34:10.745Z,12.47
2019-04-10T10:36:46.066Z,13.08
2019-04-10T10:39:19.648Z,12.93
2019-04-10T10:41:51.114Z,13.61
2019-04-10T10:44:21.875Z,13.18
2019-04-10T10:46:52.694Z,13.14
2019-04-10T10:49:24.330Z,12.33
2019-04-10T10:51:55.194Z,11.87
2019-04-10T10:54:26.835Z,12.08
2019-04-10T10:56:58.490Z,12.06
2019-04-10T10:59:29.419Z,12.26
2019-04-10T11:02:00.246Z,12.28
2019-04-10T11:04:31.585Z,12.26
2019-04-10T11:07:02.694Z,12.39
2019-04-10T11:09:34.135Z,12.21
2019-04-10T11:12:06.749Z,12.35
2019-04-10T11:14:37.593Z,12.21
2019-04-10T11:17:07.891Z,12.23
2019-04-10T11:19:39.361Z,12.06
2019-04-10T11:22:12.690Z,12.20
2019-04-10T11:24:43.406Z,12.01
2019-04-10T11:27:15.979Z,12.26
2019-04-10T11:29:46.862Z,12.15
2019-04-10T11:32:17.608Z,12.34
2019-04-10T11:34:49.328Z,12.20
2019-04-10T11:39:51.970Z,12.56
2019-04-10T11:42:22.636Z,13.03
2019-04-10T11:44:54.467Z,12.42
2019-04-10T11:47:26.759Z,12.70
2019-04-10T11:49:58.861Z,12.58
2019-04-10T11:55:10.535Z,12.49
2019-04-10T11:57:34.953Z,12.64
2019-04-10T12:00:12.070Z,12.94
2019-04-10T12:02:42.424Z,13.01
2019-04-10T12:05:18.533Z,12.68
2019-04-10T12:12:48.540Z,12.67
2019-04-10T12:15:18.905Z,12.86
2019-04-10T12:17:49.747Z,13.01
2019-04-10T12:20:20.907Z,13.11
2019-04-10T12:22:52.371Z,12.57
2019-04-10T12:25:22.958Z,12.76
2019-04-10T12:27:53.563Z,12.94
2019-04-10T12:30:24.051Z,12.78
2019-04-10T12:32:54.815Z,13.24
2019-04-10T12:35:25.281Z,12.80
2019-04-10T12:38:02.190Z,12.75
2019-04-10T12:40:28.704Z,12.93
2019-04-10T12:42:59.038Z,12.63
2019-04-10T12:45:30.497Z,13.01
2019-04-10T12:48:02.058Z,12.89
2019-04-10T12:50:32.825Z,13.01
2019-04-10T12:53:03.304Z,13.06
2019-04-10T12:55:34.636Z,12.98
2019-04-10T12:58:10.869Z,12.73
2019-04-10T13:00:38.445Z,12.84
2019-04-10T13:03:09.255Z,12.95
2019-04-10T13:05:39.597Z,12.91
2019-04-10T13:08:17.087Z,12.86
2019-04-10T13:10:43.949Z,13.06
2019-04-10T13:13:15.965Z,13.11
2019-04-10T13:15:47.696Z,12.95
2019-04-10T13:18:18.530Z,13.31
2019-04-10T13:20:48.954Z,13.21
2019-04-10T13:23:20.452Z,13.05
2019-04-10T13:25:58.093Z,13.46
2019-04-10T13:28:23.401Z,13.33
2019-04-10T13:30:56.568Z,13.59
2019-04-10T13:33:26.847Z,13.24
2019-04-10T13:35:57.621Z,13.13
2019-04-10T13:38:32.394Z,13.41
2019-04-10T13:41:01.920Z,13.34
2019-04-10T13:43:32.381Z,13.45
2019-04-10T13:46:03.107Z,13.28
2019-04-10T13:48:33.497Z,13.33
2019-04-10T13:51:03.752Z,13.28
2019-04-10T13:53:34.277Z,13.30
2019-04-10T13:56:06.578Z,13.43
2019-04-10T13:58:37.171Z,13.43
2019-04-10T14:01:11.272Z,13.28
2019-04-10T14:03:43.788Z,13.41
2019-04-10T14:06:13.751Z,13.41
2019-04-10T14:09:04.462Z,13.52
2019-04-10T14:11:17.402Z,13.44
2019-04-10T14:13:48.384Z,13.20
2019-04-10T14:16:18.727Z,13.36
2019-04-10T14:18:49.095Z,13.36
2019-04-10T14:21:20.661Z,13.37
2019-04-10T14:23:51.519Z,13.37
2019-04-10T14:26:41.922Z,13.48
2019-04-10T14:29:07.804Z,13.29
2019-04-10T14:31:46.705Z,13.01
2019-04-10T14:34:18.822Z,13.23
2019-04-10T14:36:49.578Z,13.17
2019-04-10T14:39:21.474Z,13.14
2019-04-10T14:41:53.842Z,12.97
2019-04-10T14:44:24.408Z,12.90
2019-04-10T14:46:55.131Z,13.06
2019-04-10T14:49:25.689Z,13.29
2019-04-10T14:51:56.800Z,13.04
2019-04-10T14:54:27.991Z,13.06
2019-04-10T14:56:58.806Z,12.86
2019-04-10T14:59:29.385Z,12.96
2019-04-10T15:02:00.063Z,13.04
2019-04-10T15:04:31.231Z,12.74
2019-04-10T15:07:01.850Z,12.62
2019-04-10T15:09:32.275Z,12.55
2019-04-10T15:12:04.964Z,12.65
2019-04-10T15:14:35.487Z,12.52
2019-04-10T15:17:07.968Z,12.57
2019-04-10T15:19:38.584Z,12.61
2019-04-10T15:22:09.510Z,12.63
2019-04-10T15:24:40.175Z,12.49
2019-04-10T15:27:11.310Z,12.56
2019-04-10T15:29:42.980Z,12.42
2019-04-10T15:32:14.575Z,12.51
2019-04-10T15:34:46.042Z,12.38
2019-04-10T15:37:17.183Z,12.51
2019-04-10T15:39:48.442Z,12.42
2019-04-10T15:42:19.749Z,12.37
2019-04-10T15:44:50.331Z,12.25
2019-04-10T15:47:22.923Z,12.35
2019-04-10T15:49:53.544Z,12.41
2019-04-10T15:52:23.951Z,12.41
2019-04-10T15:54:55.344Z,12.33
2019-04-10T15:57:26.940Z,12.04
2019-04-10T15:59:57.448Z,11.99
2019-04-10T16:02:27.974Z,12.04
2019-04-10T16:04:59.374Z,12.00
2019-04-10T16:07:30.874Z,11.96
2019-04-10T16:10:19.003Z,11.95
2019-04-10T16:12:49.861Z,11.99
2019-04-10T16:15:20.257Z,11.93
2019-04-10T16:17:58.829Z,11.87
2019-04-10T16:20:31.570Z,11.73
2019-04-10T16:23:20.304Z,11.64
2019-04-10T16:25:52.562Z,11.50
2019-04-10T16:28:23.581Z,11.63
2019-04-10T16:30:55.115Z,11.58
2019-04-10T16:33:27.394Z,11.63
2019-04-10T16:35:58.920Z,11.55
2019-04-10T16:38:29.536Z,11.52
2019-04-10T16:41:00.481Z,11.56
2019-04-10T16:43:30.907Z,11.59
2019-04-10T16:46:01.222Z,11.54
2019-04-10T16:48:31.937Z,11.49
2019-04-10T16:51:02.291Z,11.38
2019-04-10T16:53:33.916Z,11.29
2019-04-10T16:56:05.274Z,11.27
2019-04-10T16:58:36.689Z,11.27
2019-04-10T17:01:08.357Z,11.31
2019-04-10T17:03:40.082Z,11.18
2019-04-10T17:06:10.511Z,11.14
2019-04-10T17:08:40.815Z,11.15
2019-04-10T17:11:12.530Z,11.15
2019-04-10T17:13:43.501Z,11.06
2019-04-10T17:16:15.676Z,10.98
2019-04-10T17:18:47.493Z,10.90
2019-04-10T17:21:18.465Z,10.89
2019-04-10T17:23:51.137Z,10.82
2019-04-10T17:26:22.527Z,10.73
2019-04-10T17:28:52.987Z,10.69
2019-04-10T17:31:24.635Z,10.72
2019-04-10T17:33:55.008Z,10.70
2019-04-10T17:36:25.686Z,10.54
2019-04-10T17:38:56.024Z,10.50
2019-04-10T17:41:26.349Z,10.39
2019-04-10T17:43:58.107Z,10.37
2019-04-10T17:46:29.142Z,10.39
2019-04-10T17:48:59.365Z,10.30
2019-04-10T17:51:30.314Z,10.22
2019-04-10T17:54:02.130Z,10.18
2019-04-10T17:56:32.646Z,10.12
2019-04-10T17:59:03.047Z,10.03
2019-04-10T18:01:34.756Z,9.95
2019-04-10T18:04:05.680Z,9.96
2019-04-10T18:06:36.295Z,9.91
2019-04-10T18:09:09.802Z,9.84
2019-04-10T18:11:40.175Z,9.72
2019-04-10T18:14:11.180Z,9.66
2019-04-10T18:16:42.225Z,9.55
2019-04-10T18:19:15.350Z,9.47
2019-04-10T18:21:45.928Z,9.38
2019-04-10T18:24:16.240Z,9.35
2019-04-10T18:26:49.555Z,9.25
2019-04-10T18:29:19.117Z,9.20
2019-04-10T18:31:50.965Z,9.15
2019-04-10T18:34:21.808Z,9.05
2019-04-10T18:36:52.464Z,9.03
2019-04-10T18:39:24.102Z,8.98
2019-04-10T18:41:56.087Z,8.96
2019-04-10T18:44:26.917Z,8.91
2019-04-10T18:46:57.426Z,8.85
2019-04-10T18:49:35.772Z,8.71
2019-04-10T18:52:07.472Z,8.59
2019-04-10T18:54:37.928Z,8.48
2019-04-10T18:57:09.341Z,8.42
2019-04-10T19:00:18.647Z,8.45
2019-04-10T19:03:13.627Z,8.38
2019-04-10T19:05:47.757Z,8.30
2019-04-10T19:08:18.087Z,8.15
2019-04-10T19:10:48.532Z,8.10
2019-04-10T19:13:18.927Z,8.09
2019-04-10T19:15:49.320Z,7.96
2019-04-10T19:18:19.731Z,7.88
2019-04-10T19:20:51.436Z,7.79
2019-04-10T19:23:22.728Z,7.80
2019-04-10T19:25:54.708Z,7.64
2019-04-10T19:28:32.285Z,7.68
2019-04-10T19:31:11.885Z,7.66
2019-04-10T19:33:37.687Z,7.61
2019-04-10T19:36:08.022Z,7.70
2019-04-10T19:38:38.393Z,7.71
2019-04-10T19:41:23.342Z,7.66
2019-04-10T19:43:43.274Z,7.58
2019-04-10T19:46:13.965Z,7.48
2019-04-10T19:48:47.252Z,7.45
2019-04-10T19:51:16.949Z,7.39
2019-04-10T19:54:17.806Z,7.34
2019-04-10T19:56:48.881Z,7.20
2019-04-10T19:59:19.333Z,7.27
2019-04-10T20:01:50.667Z,7.23
2019-04-10T20:04:21.213Z,7.21
2019-04-10T20:06:52.349Z,7.20
2019-04-10T20:09:24.191Z,7.16
2019-04-10T20:11:57.191Z,7.15
2019-04-10T20:14:28.367Z,7.18
2019-04-10T20:16:59.732Z,7.15
2019-04-10T20:19:30.737Z,7.13
2019-04-10T20:22:01.117Z,7.13
2019-04-10T20:24:32.610Z,6.76
2019-04-10T20:27:03.535Z,6.99
2019-04-10T20:29:35.046Z,6.96
2019-04-10T20:32:05.904Z,6.77
2019-04-10T20:34:37.777Z,6.83
2019-04-10T20:37:09.871Z,6.78
2019-04-10T20:39:41.219Z,6.75
2019-04-10T20:42:11.892Z,6.73
2019-04-10T20:44:43.038Z,6.70
2019-04-10T20:47:13.383Z,6.73
2019-04-10T20:49:44.698Z,6.76
2019-04-10T20:52:15.108Z,6.69
2019-04-10T20:54:45.434Z,6.71
2019-04-10T20:57:15.858Z,6.69
2019-04-10T20:59:46.133Z,6.65
2019-04-10T21:02:16.506Z,6.54
2019-04-10T21:04:54.538Z,6.57
2019-04-10T21:07:19.860Z,6.53
2019-04-10T21:09:50.324Z,6.51
2019-04-10T21:12:21.426Z,6.53
2019-04-10T21:14:52.559Z,6.52
2019-04-10T21:17:23.022Z,6.53
2019-04-10T21:19:53.815Z,6.56
2019-04-10T21:22:24.604Z,6.44
2019-04-10T21:24:56.194Z,6.48
2019-04-10T21:27:26.634Z,6.47
2019-04-10T21:30:18.637Z,6.38
2019-04-10T21:32:58.313Z,6.27
2019-04-10T21:35:32.909Z,6.27
2019-04-10T21:38:04.694Z,6.23
2019-04-10T21:40:35.354Z,6.17
2019-04-10T21:43:06.112Z,6.10
2019-04-10T21:45:37.034Z,6.12
2019-04-10T21:48:08.500Z,6.07
2019-04-10T21:50:39.815Z,6.00
2019-04-10T21:53:10.231Z,5.98
2019-04-10T21:55:41.691Z,5.95
2019-04-10T21:58:13.103Z,5.94
2019-04-10T22:01:13.431Z,5.92
2019-04-10T22:03:44.196Z,5.92
2019-04-10T22:06:45.555Z,5.92
2019-04-10T22:09:34.977Z,5.82
2019-04-10T22:12:24.036Z,5.80
2019-04-10T22:14:45.981Z,5.80
2019-04-10T22:17:17.128Z,5.79
2019-04-10T22:19:47.505Z,5.73
2019-04-10T22:22:18.246Z,5.70
2019-04-10T22:24:48.985Z,5.68
2019-04-10T22:27:19.563Z,5.72
2019-04-10T22:32:25.464Z,5.62
2019-04-10T22:34:56.927Z,5.63
2019-04-10T22:37:27.902Z,5.58
2019-04-10T22:39:58.736Z,5.55
2019-04-10T22:42:40.164Z,5.61
2019-04-10T22:45:02.600Z,5.47
2019-04-10T22:47:33.958Z,5.54
2019-04-10T22:50:04.971Z,5.47
2019-04-10T22:52:35.353Z,5.40
2019-04-10T22:55:07.117Z,5.37
2019-04-10T22:57:39.734Z,5.35
2019-04-10T23:00:12.462Z,5.42
2019-04-10T23:02:42.837Z,5.41
2019-04-10T23:05:16.240Z,5.33
2019-04-10T23:07:47.213Z,5.30
2019-04-10T23:10:19.136Z,5.30
2019-04-10T23:12:58.114Z,5.22
2019-04-10T23:15:21.707Z,5.21
2019-04-10T23:17:52.852Z,5.23
2019-04-10T23:20:23.781Z,5.24
2019-04-10T23:22:54.795Z,5.26
2019-04-10T23:25:25.242Z,5.15
2019-04-10T23:27:56.413Z,5.09
2019-04-10T23:30:26.998Z,5.13
2019-04-10T23:32:57.663Z,5.03
2019-04-10T23:35:27.930Z,5.00
2019-04-10T23:37:59.505Z,5.11
2019-04-10T23:40:29.862Z,5.03
2019-04-10T23:43:07.711Z,4.96
2019-04-10T23:45:33.508Z,4.92
2019-04-10T23:48:04.553Z,4.74
2019-04-10T23:50:36.434Z,4.75
2019-04-10T23:53:06.958Z,4.73
2019-04-10T23:55:37.853Z,4.60
2019-04-10T23:58:09.399Z,4.73
